MDT,Max TemperatureF,Mean TemperatureF,Min TemperatureF,Max Dew PointF,MeanDew PointF,Min DewpointF,Max Humidity, Mean Humidity, Min Humidity, Max Sea Level PressureIn, Mean Sea Level PressureIn, Min Sea Level PressureIn, Max VisibilityMiles, Mean VisibilityMiles, Min VisibilityMiles, Max Wind SpeedMPH, Mean Wind SpeedMPH, Max Gust SpeedMPH,PrecipitationIn, CloudCover, Events, WindDirDegrees
2013-3-1,52,44,35,39,35,32,100,80,59,30.44,30.42,30.38,10,10,9,16,3,28,T,7,,246
2013-3-2,53,41,28,39,34,27,93,72,50,30.39,30.20,29.96,10,10,10,17,3,22,0.02,4,Rain,297
2013-3-3,41,35,28,39,28,16,100,70,40,30.18,29.97,29.80,10,6,0,32,12,40,0.05,7,Fog-Rain-Snow,289
2013-3-4,39,28,16,24,16,12,85,60,35,30.40,30.30,30.21,10,10,10,13,5,,0.00,2,,73
2013-3-5,42,31,19,24,16,12,77,55,32,30.25,30.11,29.95,10,10,10,18,9,23,0.00,4,,119
2013-3-6,42,35,28,35,29,22,100,81,61,29.94,29.78,29.68,10,8,1,17,2,20,0.13,5,Rain-Snow,336
2013-3-7,47,37,26,34,26,20,100,69,37,30.12,30.03,29.83,10,10,5,14,5,17,0.01,5,Rain,310
2013-3-8,49,35,20,25,21,17,91,64,36,30.13,30.07,29.98,10,10,10,18,3,23,0.00,0,,346
2013-3-9,50,38,25,26,23,21,88,61,34,30.45,30.30,30.13,10,10,10,18,6,23,0.00,5,,85
2013-3-10,49,36,23,34,26,20,88,64,39,30.49,30.35,30.22,10,10,10,23,4,30,0.01,5,Rain,338
2013-3-11,50,40,30,34,24,16,100,64,28,30.29,30.23,30.16,10,10,10,25,7,31,0.00,4,,307
2013-3-12,46,38,29,39,30,21,92,78,63,30.28,30.21,30.15,10,7,1,9,2,12,0.03,8,Snow,329
2013-3-13,60,48,36,40,35,31,100,68,36,30.24,30.20,30.15,10,10,9,12,3,15,0.00,5,,330
2013-3-14,59,45,30,37,33,29,92,65,37,30.24,30.14,30.02,10,10,10,10,1,12,0.00,1,,322
2013-3-15,58,47,35,38,34,28,76,57,38,30.14,30.09,30.03,10,10,10,22,8,33,T,5,Rain,314
2013-3-16,49,41,33,37,33,30,89,71,53,30.09,29.92,29.71,10,10,4,29,4,38,0.03,7,Rain,266
2013-3-17,41,35,28,35,22,16,92,66,40,30.05,29.86,29.65,10,10,5,25,12,33,0.01,7,,274
2013-3-18,42,34,26,29,26,16,100,67,34,30.15,30.02,29.94,10,5,0,24,7,33,0.13,8,Fog-Snow,297
2013-3-19,46,32,18,28,23,17,100,66,31,30.39,30.20,30.06,10,8,0,16,3,20,T,4,Fog-Snow,284
2013-3-20,56,44,31,38,32,23,85,68,50,30.03,29.75,29.51,10,10,6,37,7,48,0.05,7,Rain,167
2013-3-21,41,34,27,28,20,14,85,63,40,30.05,29.94,29.77,10,10,9,28,10,32,T,6,,257
2013-3-22,37,29,20,27,23,18,100,76,52,30.28,30.10,30.01,10,6,0,17,3,22,0.04,7,Fog-Snow,305
2013-3-23,37,26,14,23,20,14,100,78,56,30.43,30.30,30.19,10,6,1,16,2,23,0.04,7,Snow,17
2013-3-24,41,30,19,19,16,9,84,56,27,30.45,30.36,30.18,10,10,5,8,2,12,T,3,Snow,327
2013-3-25,50,33,16,23,18,12,84,57,29,30.30,30.19,30.07,10,10,10,13,2,15,0.00,1,,350
2013-3-26,57,45,32,27,26,23,75,51,27,30.06,30.01,29.94,10,10,10,12,3,20,T,4,,338
2013-3-27,57,43,29,40,31,25,85,63,41,30.08,30.03,29.99,10,10,10,15,3,20,T,7,Rain,315
2013-3-28,56,44,32,43,37,32,100,77,54,30.13,30.09,30.04,10,9,2,18,2,26,0.06,6,Rain,321
2013-3-29,57,47,37,41,36,33,100,73,46,30.25,30.19,30.13,10,10,10,18,3,21,T,7,,279
2013-3-30,62,46,30,36,32,28,92,61,29,30.35,30.25,30.17,10,10,10,9,3,12,0.00,1,,295
2013-3-31,67,49,30,33,30,26,85,56,26,30.20,30.10,29.98,10,10,10,17,3,24,0.00,0,,16